createdAt,value
2023-05-08T00:00:27.786Z,100.00
2023-05-08T00:02:55.870Z,100.00
2023-05-08T00:05:24.080Z,100.00
2023-05-08T00:07:53.582Z,100.00
2023-05-08T00:10:21.695Z,100.00
2023-05-08T00:12:49.653Z,100.00
2023-05-08T00:15:17.751Z,100.00
2023-05-08T00:17:45.758Z,100.00
2023-05-08T00:20:14.639Z,100.00
2023-05-08T00:22:42.760Z,100.00
2023-05-08T00:25:10.981Z,100.00
2023-05-08T00:27:39.059Z,100.00
2023-05-08T00:30:08.770Z,100.00
2023-05-08T00:32:36.849Z,100.00
2023-05-08T00:35:05.075Z,100.00
2023-05-08T00:37:33.148Z,100.00
2023-05-08T00:40:01.158Z,100.00
2023-05-08T00:42:29.081Z,100.00
2023-05-08T00:44:57.063Z,100.00
2023-05-08T00:47:25.047Z,100.00
2023-05-08T00:49:53.196Z,100.00
2023-05-08T00:52:21.159Z,100.00
2023-05-08T00:54:49.173Z,100.00
2023-05-08T00:57:17.313Z,100.00
2023-05-08T00:59:46.719Z,100.00
2023-05-08T01:02:15.035Z,100.00
2023-05-08T01:04:43.385Z,100.00
2023-05-08T01:07:12.505Z,100.00
2023-05-08T01:09:41.088Z,100.00
2023-05-08T01:12:36.305Z,100.00
2023-05-08T01:15:18.757Z,100.00
2023-05-08T01:17:46.686Z,100.00
2023-05-08T01:20:32.856Z,100.00
2023-05-08T01:23:09.736Z,100.00
2023-05-08T01:25:46.475Z,100.00
2023-05-08T01:28:33.385Z,100.00
2023-05-08T01:31:06.797Z,100.00
2023-05-08T01:33:38.612Z,100.00
2023-05-08T01:36:27.410Z,100.00
2023-05-08T01:38:58.037Z,100.00
2023-05-08T01:41:31.953Z,100.00
2023-05-08T01:44:10.838Z,100.00
2023-05-08T01:46:39.064Z,100.00
2023-05-08T01:49:10.060Z,100.00
2023-05-08T01:51:43.353Z,100.00
2023-05-08T01:54:13.785Z,100.00
2023-05-08T01:56:41.847Z,100.00
2023-05-08T01:59:09.997Z,100.00
2023-05-08T02:01:38.120Z,100.00
2023-05-08T02:04:06.242Z,100.00
2023-05-08T02:06:34.541Z,100.00
2023-05-08T02:09:02.609Z,100.00
2023-05-08T02:11:31.025Z,100.00
2023-05-08T02:14:00.038Z,100.00
2023-05-08T02:16:28.126Z,100.00
2023-05-08T02:18:57.061Z,100.00
2023-05-08T02:21:25.148Z,100.00
2023-05-08T02:23:53.300Z,100.00
2023-05-08T02:26:21.378Z,100.00
2023-05-08T02:28:50.022Z,100.00
2023-05-08T02:31:18.361Z,100.00
2023-05-08T02:33:46.535Z,100.00
2023-05-08T02:36:15.576Z,100.00
2023-05-08T02:38:44.602Z,100.00
2023-05-08T02:41:12.967Z,100.00
2023-05-08T02:43:41.130Z,100.00
2023-05-08T02:46:24.271Z,100.00
2023-05-08T02:48:59.850Z,100.00
2023-05-08T02:51:45.449Z,100.00
2023-05-08T02:54:17.740Z,100.00
2023-05-08T02:56:51.468Z,100.00
2023-05-08T02:59:21.869Z,100.00
2023-05-08T03:01:55.836Z,100.00
2023-05-08T03:07:00.644Z,100.00
2023-05-08T03:09:33.785Z,100.00
2023-05-08T03:12:07.735Z,100.00
2023-05-08T03:14:38.316Z,100.00
2023-05-08T03:17:07.914Z,100.00
2023-05-08T03:19:37.841Z,100.00
2023-05-08T03:22:05.928Z,100.00
2023-05-08T03:24:36.126Z,100.00
2023-05-08T03:27:04.160Z,100.00
2023-05-08T03:29:32.337Z,100.00
2023-05-08T03:32:00.449Z,100.00
2023-05-08T03:34:28.551Z,100.00
2023-05-08T03:36:56.866Z,100.00
2023-05-08T03:39:25.976Z,100.00
2023-05-08T03:41:54.302Z,100.00
2023-05-08T03:44:22.472Z,100.00
2023-05-08T03:46:52.195Z,100.00
2023-05-08T03:49:20.408Z,100.00
2023-05-08T03:51:48.557Z,100.00
2023-05-08T03:54:16.684Z,100.00
2023-05-08T03:56:47.314Z,100.00
2023-05-08T03:59:22.584Z,100.00
2023-05-08T04:01:55.724Z,100.00
2023-05-08T04:07:15.896Z,100.00
2023-05-08T04:10:15.837Z,100.00
2023-05-08T04:12:59.437Z,100.00
2023-05-08T04:15:31.261Z,100.00
2023-05-08T04:18:01.394Z,100.00
2023-05-08T04:20:29.592Z,100.00
2023-05-08T04:22:57.839Z,100.00
2023-05-08T04:25:26.070Z,100.00
2023-05-08T04:27:54.724Z,100.00
2023-05-08T04:30:22.921Z,100.00
2023-05-08T04:32:51.036Z,100.00
2023-05-08T04:35:19.619Z,100.00
2023-05-08T04:37:47.828Z,100.00
2023-05-08T04:40:16.130Z,100.00
2023-05-08T04:42:45.014Z,100.00
2023-05-08T04:45:13.587Z,100.00
2023-05-08T04:47:42.101Z,100.00
2023-05-08T04:50:10.639Z,100.00
2023-05-08T04:52:39.044Z,100.00
2023-05-08T04:55:07.623Z,100.00
2023-05-08T04:57:36.081Z,100.00
2023-05-08T05:00:04.832Z,100.00
2023-05-08T05:02:33.091Z,100.00
2023-05-08T05:05:02.663Z,100.00
2023-05-08T05:07:30.801Z,100.00
2023-05-08T05:09:59.014Z,100.00
2023-05-08T05:12:27.245Z,100.00
2023-05-08T05:14:55.427Z,100.00
2023-05-08T05:17:23.616Z,100.00
2023-05-08T05:19:53.378Z,100.00
2023-05-08T05:22:21.634Z,100.00
2023-05-08T05:24:49.742Z,100.00
2023-05-08T05:27:20.602Z,100.00
2023-05-08T05:29:49.447Z,100.00
2023-05-08T05:32:17.614Z,100.00
2023-05-08T05:34:45.857Z,100.00
2023-05-08T05:37:13.978Z,100.00
2023-05-08T05:39:42.164Z,100.00
2023-05-08T05:42:10.621Z,100.00
2023-05-08T05:44:38.877Z,100.00
2023-05-08T05:47:07.510Z,100.00
2023-05-08T05:49:35.996Z,100.00
2023-05-08T05:52:04.162Z,100.00
2023-05-08T05:54:32.464Z,100.00
2023-05-08T05:57:00.718Z,100.00
2023-05-08T05:59:29.111Z,100.00
2023-05-08T06:01:57.410Z,100.00
2023-05-08T06:04:25.669Z,100.00
2023-05-08T06:06:53.784Z,100.00
2023-05-08T06:09:21.982Z,100.00
2023-05-08T06:11:50.193Z,100.00
2023-05-08T06:14:18.631Z,100.00
2023-05-08T06:16:47.266Z,100.00
2023-05-08T06:19:15.557Z,100.00
2023-05-08T06:21:43.726Z,100.00
2023-05-08T06:24:11.980Z,100.00
2023-05-08T06:26:40.186Z,100.00
2023-05-08T06:29:08.367Z,100.00
2023-05-08T06:31:36.749Z,100.00
2023-05-08T06:34:05.307Z,100.00
2023-05-08T06:36:33.665Z,100.00
2023-05-08T06:39:01.832Z,100.00
2023-05-08T06:41:30.063Z,100.00
2023-05-08T06:43:58.304Z,100.00
2023-05-08T06:46:26.975Z,100.00
2023-05-08T06:48:55.373Z,100.00
2023-05-08T06:51:24.680Z,100.00
2023-05-08T06:53:52.941Z,100.00
2023-05-08T06:56:21.083Z,100.00
2023-05-08T06:59:00.489Z,100.00
2023-05-08T07:01:35.658Z,100.00
2023-05-08T07:04:03.984Z,100.00
2023-05-08T07:06:35.573Z,100.00
2023-05-08T07:09:04.283Z,100.00
2023-05-08T07:11:32.869Z,100.00
2023-05-08T07:14:01.575Z,100.00
2023-05-08T07:16:29.653Z,100.00
2023-05-08T07:18:57.917Z,100.00
2023-05-08T07:21:26.511Z,100.00
2023-05-08T07:23:55.192Z,100.00
2023-05-08T07:26:23.904Z,100.00
2023-05-08T07:28:52.688Z,100.00
2023-05-08T07:31:20.980Z,100.00
2023-05-08T07:33:49.342Z,100.00
2023-05-08T07:36:17.502Z,100.00
2023-05-08T07:38:45.614Z,100.00
2023-05-08T07:41:13.807Z,100.00
2023-05-08T07:43:42.421Z,100.00
2023-05-08T07:46:10.590Z,100.00
2023-05-08T07:48:38.740Z,100.00
2023-05-08T07:51:07.055Z,100.00
2023-05-08T07:53:35.324Z,100.00
2023-05-08T07:56:03.313Z,100.00
2023-05-08T07:58:31.672Z,100.00
2023-05-08T08:00:59.806Z,100.00
2023-05-08T08:03:28.206Z,100.00
2023-05-08T08:05:57.055Z,100.00
2023-05-08T08:08:25.535Z,100.00
2023-05-08T08:10:54.536Z,100.00
2023-05-08T08:13:22.908Z,100.00
2023-05-08T08:15:51.299Z,100.00
2023-05-08T08:18:19.916Z,100.00
2023-05-08T08:20:48.901Z,100.00
2023-05-08T08:23:17.496Z,100.00
2023-05-08T08:25:45.808Z,100.00
2023-05-08T08:28:13.996Z,100.00
2023-05-08T08:30:42.531Z,100.00
2023-05-08T08:33:10.947Z,100.00
2023-05-08T08:35:39.630Z,100.00
2023-05-08T08:38:07.800Z,100.00
2023-05-08T08:40:43.392Z,100.00
2023-05-08T08:43:11.818Z,100.00
2023-05-08T08:45:40.542Z,100.00
2023-05-08T08:48:12.891Z,100.00
2023-05-08T08:50:44.399Z,100.00
2023-05-08T08:53:17.746Z,100.00
2023-05-08T08:55:47.777Z,100.00
2023-05-08T08:58:25.232Z,100.00
2023-05-08T09:00:54.051Z,100.00
2023-05-08T09:03:22.438Z,100.00
2023-05-08T09:05:53.481Z,100.00
2023-05-08T09:08:21.744Z,100.00
2023-05-08T09:10:50.060Z,100.00
2023-05-08T09:13:20.660Z,100.00
2023-05-08T09:15:49.105Z,100.00
2023-05-08T09:18:17.431Z,100.00
2023-05-08T09:20:46.263Z,100.00
2023-05-08T09:23:16.126Z,100.00
2023-05-08T09:25:48.447Z,100.00
2023-05-08T09:28:17.854Z,100.00
2023-05-08T09:30:53.322Z,100.00
2023-05-08T09:33:22.087Z,100.00
2023-05-08T09:35:50.408Z,100.00
2023-05-08T09:38:47.847Z,100.00
2023-05-08T09:41:17.550Z,100.00
2023-05-08T09:43:46.423Z,100.00
2023-05-08T09:46:20.768Z,100.00
2023-05-08T09:48:49.210Z,100.00
2023-05-08T09:51:19.254Z,100.00
2023-05-08T09:53:47.747Z,100.00
2023-05-08T09:56:15.974Z,100.00
2023-05-08T09:58:45.034Z,100.00
2023-05-08T10:01:30.387Z,100.00
2023-05-08T10:03:58.938Z,100.00
2023-05-08T10:06:27.403Z,100.00
2023-05-08T10:09:09.542Z,100.00
2023-05-08T10:11:37.737Z,100.00
2023-05-08T10:14:06.051Z,100.00
2023-05-08T10:16:38.668Z,100.00
2023-05-08T10:19:08.581Z,100.00
2023-05-08T10:21:39.050Z,100.00
2023-05-08T10:24:07.820Z,100.00
2023-05-08T10:26:35.899Z,100.00
2023-05-08T10:29:09.982Z,100.00
2023-05-08T10:31:38.264Z,100.00
2023-05-08T10:34:06.623Z,100.00
2023-05-08T10:36:34.783Z,100.00
2023-05-08T10:39:02.998Z,100.00
2023-05-08T10:41:31.243Z,100.00
2023-05-08T10:44:01.136Z,100.00
2023-05-08T10:46:50.530Z,100.00
2023-05-08T10:49:31.628Z,100.00
2023-05-08T10:52:20.143Z,100.00
2023-05-08T10:55:25.604Z,100.00
2023-05-08T10:58:13.052Z,100.00
2023-05-08T11:01:02.437Z,100.00
2023-05-08T11:03:33.028Z,100.00
2023-05-08T11:06:02.224Z,100.00
2023-05-08T11:08:31.252Z,100.00
2023-05-08T11:11:06.536Z,100.00
2023-05-08T11:13:52.125Z,100.00
2023-05-08T11:16:20.278Z,100.00
2023-05-08T11:19:17.048Z,100.00
2023-05-08T11:22:13.220Z,100.00
2023-05-08T11:24:42.716Z,100.00
2023-05-08T11:27:11.080Z,100.00
2023-05-08T11:29:40.349Z,100.00
2023-05-08T11:32:09.277Z,96.68
2023-05-08T11:34:58.440Z,97.08
2023-05-08T11:37:27.088Z,89.44
2023-05-08T11:39:55.379Z,95.90
2023-05-08T11:42:26.399Z,95.12
2023-05-08T11:45:11.765Z,90.19
2023-05-08T11:47:45.103Z,87.44
2023-05-08T11:50:14.394Z,84.34
2023-05-08T11:52:43.883Z,88.48
2023-05-08T11:55:13.167Z,85.67
2023-05-08T11:57:41.569Z,82.24
2023-05-08T12:00:13.725Z,82.63
2023-05-08T12:02:43.736Z,84.46
2023-05-08T12:05:12.343Z,82.90
2023-05-08T12:07:47.960Z,80.99
2023-05-08T12:10:17.339Z,80.62
2023-05-08T12:12:45.925Z,84.31
2023-05-08T12:15:15.399Z,88.39
2023-05-08T12:17:44.089Z,90.10
2023-05-08T12:20:16.029Z,94.15
2023-05-08T12:22:44.993Z,94.44
2023-05-08T12:25:14.401Z,96.67
2023-05-08T12:27:42.845Z,99.80
2023-05-08T12:30:12.758Z,100.00
2023-05-08T12:32:44.828Z,100.00
2023-05-08T12:35:13.788Z,100.00
2023-05-08T12:37:41.930Z,100.00
2023-05-08T12:40:18.812Z,100.00
2023-05-08T12:42:47.915Z,100.00
2023-05-08T12:45:26.154Z,100.00
2023-05-08T12:47:55.078Z,100.00
2023-05-08T12:50:23.482Z,100.00
2023-05-08T12:52:52.119Z,100.00
2023-05-08T12:55:27.440Z,100.00
2023-05-08T12:58:06.139Z,100.00
2023-05-08T13:00:41.259Z,100.00
2023-05-08T13:03:10.530Z,100.00
2023-05-08T13:05:39.995Z,100.00
2023-05-08T13:08:12.271Z,100.00
2023-05-08T13:10:50.614Z,100.00
2023-05-08T13:13:20.603Z,100.00
2023-05-08T13:15:49.341Z,100.00
2023-05-08T13:18:17.800Z,100.00
2023-05-08T13:20:46.442Z,100.00
2023-05-08T13:23:15.088Z,100.00
2023-05-08T13:25:43.530Z,100.00
2023-05-08T13:28:12.408Z,100.00
2023-05-08T13:30:40.605Z,100.00
2023-05-08T13:33:09.004Z,100.00
2023-05-08T13:35:37.545Z,100.00
2023-05-08T13:38:05.843Z,100.00
2023-05-08T13:40:34.335Z,100.00
2023-05-08T13:43:02.866Z,100.00
2023-05-08T13:45:31.214Z,100.00
2023-05-08T13:47:59.443Z,100.00
2023-05-08T13:50:27.570Z,100.00
2023-05-08T13:52:55.752Z,100.00
2023-05-08T13:55:24.292Z,100.00
2023-05-08T13:57:52.571Z,100.00
2023-05-08T14:00:21.562Z,100.00
2023-05-08T14:02:52.310Z,100.00
2023-05-08T14:05:21.517Z,100.00
2023-05-08T14:07:49.853Z,100.00
2023-05-08T14:10:18.736Z,100.00
2023-05-08T14:12:48.042Z,100.00
2023-05-08T14:15:16.516Z,100.00
2023-05-08T14:17:45.239Z,100.00
2023-05-08T14:20:13.731Z,100.00
2023-05-08T14:22:41.970Z,100.00
2023-05-08T14:25:10.775Z,100.00
2023-05-08T14:27:39.080Z,100.00
2023-05-08T14:30:08.114Z,100.00
2023-05-08T14:32:36.570Z,100.00
2023-05-08T14:35:05.208Z,100.00
2023-05-08T14:37:33.585Z,100.00
2023-05-08T14:40:01.758Z,100.00
2023-05-08T14:42:30.153Z,100.00
2023-05-08T14:44:58.450Z,100.00
2023-05-08T14:47:27.314Z,100.00
2023-05-08T14:49:55.568Z,100.00
2023-05-08T14:52:23.898Z,100.00
2023-05-08T14:54:54.599Z,100.00
2023-05-08T14:57:23.038Z,100.00
2023-05-08T15:02:23.360Z,100.00
2023-05-08T15:04:51.822Z,100.00
2023-05-08T15:07:19.984Z,100.00
2023-05-08T15:09:49.361Z,100.00
2023-05-08T15:12:17.551Z,100.00
2023-05-08T15:14:45.557Z,100.00
2023-05-08T15:17:13.713Z,100.00
2023-05-08T15:19:42.135Z,100.00
2023-05-08T15:22:10.448Z,100.00
2023-05-08T15:24:38.705Z,100.00
2023-05-08T15:27:07.035Z,100.00
2023-05-08T15:29:35.416Z,100.00
2023-05-08T15:32:03.819Z,100.00
2023-05-08T15:34:33.046Z,100.00
2023-05-08T15:37:01.532Z,100.00
2023-05-08T15:39:29.717Z,100.00
2023-05-08T15:41:57.949Z,100.00
2023-05-08T15:44:28.789Z,100.00
2023-05-08T15:47:02.618Z,100.00
2023-05-08T15:49:30.792Z,100.00
2023-05-08T15:51:58.886Z,100.00
2023-05-08T15:54:27.134Z,100.00
2023-05-08T15:56:55.375Z,100.00
2023-05-08T15:59:23.684Z,100.00
2023-05-08T16:01:52.999Z,100.00
2023-05-08T16:04:21.989Z,100.00
2023-05-08T16:06:50.409Z,100.00
2023-05-08T16:09:18.557Z,100.00
2023-05-08T16:11:46.878Z,100.00
2023-05-08T16:14:15.229Z,100.00
2023-05-08T16:16:43.567Z,100.00
2023-05-08T16:19:11.759Z,100.00
2023-05-08T16:21:40.023Z,100.00
2023-05-08T16:24:08.675Z,100.00
2023-05-08T16:26:36.791Z,100.00
2023-05-08T16:29:04.989Z,100.00
2023-05-08T16:31:33.133Z,100.00
2023-05-08T16:34:01.472Z,100.00
2023-05-08T16:36:29.707Z,100.00
2023-05-08T16:38:57.921Z,100.00
2023-05-08T16:41:26.143Z,100.00
2023-05-08T16:43:54.184Z,100.00
2023-05-08T16:46:29.867Z,100.00
2023-05-08T16:48:58.829Z,100.00
2023-05-08T16:51:27.047Z,100.00
2023-05-08T16:53:56.731Z,100.00
2023-05-08T16:56:26.274Z,100.00
2023-05-08T16:58:54.471Z,100.00
2023-05-08T17:01:22.747Z,100.00
2023-05-08T17:03:51.078Z,100.00
2023-05-08T17:06:19.356Z,100.00
2023-05-08T17:08:48.211Z,100.00
2023-05-08T17:11:16.372Z,100.00
2023-05-08T17:13:44.848Z,100.00
2023-05-08T17:16:13.114Z,100.00
2023-05-08T17:18:41.334Z,100.00
2023-05-08T17:21:09.796Z,100.00
2023-05-08T17:23:37.884Z,100.00
2023-05-08T17:26:06.174Z,100.00
2023-05-08T17:28:34.537Z,100.00
2023-05-08T17:31:02.877Z,100.00
2023-05-08T17:33:30.985Z,100.00
2023-05-08T17:35:59.162Z,100.00
2023-05-08T17:38:27.775Z,100.00
2023-05-08T17:40:55.874Z,100.00
2023-05-08T17:43:23.901Z,100.00
2023-05-08T17:45:51.980Z,100.00
2023-05-08T17:48:19.978Z,100.00
2023-05-08T17:50:48.432Z,100.00
2023-05-08T17:53:16.444Z,100.00
2023-05-08T17:55:44.577Z,100.00
2023-05-08T17:58:12.559Z,100.00
2023-05-08T18:00:40.690Z,100.00
2023-05-08T18:03:09.021Z,100.00
2023-05-08T18:05:37.206Z,100.00
2023-05-08T18:08:05.704Z,100.00
2023-05-08T18:10:36.036Z,100.00
2023-05-08T18:13:04.225Z,100.00
2023-05-08T18:15:32.341Z,100.00
2023-05-08T18:18:00.538Z,100.00
2023-05-08T18:20:28.575Z,100.00
2023-05-08T18:22:56.870Z,100.00
2023-05-08T18:25:25.080Z,100.00
2023-05-08T18:27:53.196Z,100.00
2023-05-08T18:30:21.186Z,100.00
2023-05-08T18:32:49.222Z,100.00
2023-05-08T18:35:17.409Z,100.00
2023-05-08T18:37:45.499Z,100.00
2023-05-08T18:40:14.405Z,100.00
2023-05-08T18:42:42.627Z,100.00
2023-05-08T18:45:11.360Z,100.00
2023-05-08T18:47:39.356Z,100.00
2023-05-08T18:50:08.040Z,100.00
2023-05-08T18:52:36.106Z,100.00
2023-05-08T18:55:04.185Z,100.00
2023-05-08T18:57:32.327Z,100.00
2023-05-08T19:00:00.392Z,100.00
2023-05-08T19:02:29.641Z,100.00
2023-05-08T19:04:57.815Z,100.00
2023-05-08T19:07:25.892Z,100.00
2023-05-08T19:09:55.550Z,100.00
2023-05-08T19:12:23.743Z,100.00
2023-05-08T19:14:52.410Z,100.00
2023-05-08T19:17:20.631Z,100.00
2023-05-08T19:19:48.764Z,100.00
2023-05-08T19:22:16.770Z,100.00
2023-05-08T19:24:44.843Z,100.00
2023-05-08T19:27:13.095Z,100.00
2023-05-08T19:29:41.175Z,100.00
2023-05-08T19:32:09.245Z,100.00
2023-05-08T19:34:39.857Z,100.00
2023-05-08T19:37:07.928Z,100.00
2023-05-08T19:39:36.111Z,100.00
2023-05-08T19:42:04.167Z,100.00
2023-05-08T19:44:33.986Z,100.00
2023-05-08T19:47:03.948Z,100.00
2023-05-08T19:49:32.383Z,100.00
2023-05-08T19:52:00.477Z,100.00
2023-05-08T19:54:28.494Z,100.00
2023-05-08T19:56:57.398Z,100.00
2023-05-08T19:59:25.490Z,100.00
2023-05-08T20:01:54.239Z,100.00
2023-05-08T20:04:22.328Z,100.00
2023-05-08T20:06:50.281Z,100.00
2023-05-08T20:09:18.545Z,100.00
2023-05-08T20:11:46.582Z,100.00
2023-05-08T20:14:15.513Z,100.00
2023-05-08T20:16:44.150Z,100.00
2023-05-08T20:19:12.326Z,100.00
2023-05-08T20:21:40.503Z,100.00
2023-05-08T20:24:08.611Z,100.00
2023-05-08T20:26:36.672Z,100.00
2023-05-08T20:29:04.944Z,100.00
2023-05-08T20:31:33.587Z,100.00
2023-05-08T20:34:01.702Z,100.00
2023-05-08T20:36:30.063Z,100.00
2023-05-08T20:38:58.684Z,100.00
2023-05-08T20:41:26.857Z,100.00
2023-05-08T20:43:54.885Z,100.00
2023-05-08T20:46:23.071Z,100.00
2023-05-08T20:48:52.555Z,100.00
2023-05-08T20:51:20.642Z,100.00
2023-05-08T20:53:48.713Z,100.00
2023-05-08T20:56:18.956Z,100.00
2023-05-08T20:58:47.517Z,100.00
2023-05-08T21:01:15.513Z,100.00
2023-05-08T21:03:43.945Z,100.00
2023-05-08T21:06:12.371Z,100.00
2023-05-08T21:08:41.229Z,100.00
2023-05-08T21:11:09.237Z,100.00
2023-05-08T21:13:37.182Z,100.00
2023-05-08T21:16:06.967Z,100.00
2023-05-08T21:18:35.112Z,100.00
2023-05-08T21:21:03.167Z,100.00
2023-05-08T21:23:32.463Z,100.00
2023-05-08T21:26:00.670Z,100.00
2023-05-08T21:28:28.852Z,100.00
2023-05-08T21:30:56.900Z,100.00
2023-05-08T21:33:25.023Z,100.00
2023-05-08T21:35:53.060Z,100.00
2023-05-08T21:38:21.107Z,100.00
2023-05-08T21:40:49.172Z,100.00
2023-05-08T21:43:17.383Z,100.00
2023-05-08T21:45:45.364Z,100.00
2023-05-08T21:48:13.378Z,100.00
2023-05-08T21:50:41.355Z,100.00
2023-05-08T21:53:09.461Z,100.00
2023-05-08T21:55:37.928Z,100.00
2023-05-08T21:58:05.926Z,100.00
2023-05-08T22:00:34.019Z,100.00
2023-05-08T22:03:02.454Z,100.00
2023-05-08T22:05:30.655Z,100.00
2023-05-08T22:07:58.648Z,100.00
2023-05-08T22:10:27.271Z,100.00
2023-05-08T22:12:55.442Z,100.00
2023-05-08T22:15:29.909Z,100.00
2023-05-08T22:17:58.687Z,100.00
2023-05-08T22:20:27.217Z,100.00
2023-05-08T22:22:55.536Z,100.00
2023-05-08T22:25:23.596Z,100.00
2023-05-08T22:27:51.559Z,100.00
2023-05-08T22:30:19.556Z,100.00
2023-05-08T22:32:50.404Z,100.00
2023-05-08T22:35:18.399Z,100.00
2023-05-08T22:37:46.356Z,100.00
2023-05-08T22:40:14.763Z,100.00
2023-05-08T22:42:43.078Z,100.00
2023-05-08T22:45:12.134Z,100.00
2023-05-08T22:47:40.450Z,100.00
2023-05-08T22:50:10.472Z,100.00
2023-05-08T22:52:38.819Z,100.00
2023-05-08T22:55:07.286Z,100.00
2023-05-08T22:57:35.240Z,100.00
2023-05-08T23:00:03.368Z,100.00
2023-05-08T23:02:35.114Z,100.00
2023-05-08T23:05:03.596Z,100.00
2023-05-08T23:07:31.623Z,100.00
2023-05-08T23:09:59.689Z,100.00
2023-05-08T23:12:27.700Z,100.00
2023-05-08T23:14:56.109Z,100.00
2023-05-08T23:17:24.102Z,100.00
2023-05-08T23:19:52.411Z,100.00
2023-05-08T23:22:20.429Z,100.00
2023-05-08T23:24:49.474Z,100.00
2023-05-08T23:27:17.499Z,100.00
2023-05-08T23:29:45.475Z,100.00
2023-05-08T23:32:14.359Z,100.00
2023-05-08T23:34:45.345Z,100.00
2023-05-08T23:37:13.371Z,100.00
2023-05-08T23:39:42.648Z,100.00
2023-05-08T23:42:10.729Z,100.00
2023-05-08T23:44:38.829Z,100.00
2023-05-08T23:47:06.905Z,100.00
2023-05-08T23:49:34.980Z,100.00
2023-05-08T23:52:02.948Z,100.00
2023-05-08T23:54:30.928Z,100.00
2023-05-08T23:56:59.004Z,100.00
2023-05-08T23:59:27.091Z,100.00
